sensor_id;sensor_type;location;lat;lon;timestamp;P1;durP1;ratioP1;P2;durP2;ratioP2
6111;SDS011;3086;48.802;9.394;2024-01-11T00:02:47;46.07;;;25.47;;
6111;SDS011;3086;48.802;9.394;2024-01-11T00:06:10;49.23;;;25.90;;
6111;SDS011;3086;48.802;9.394;2024-01-11T00:09:32;51.57;;;26.87;;
6111;SDS011;3086;48.802;9.394;2024-01-11T00:12:53;46.13;;;25.60;;
6111;SDS011;3086;48.802;9.394;2024-01-11T00:16:15;41.37;;;23.27;;
6111;SDS011;3086;48.802;9.394;2024-01-11T00:19:36;43.57;;;24.03;;
6111;SDS011;3086;48.802;9.394;2024-01-11T00:22:59;45.13;;;24.77;;
6111;SDS011;3086;48.802;9.394;2024-01-11T00:26:21;48.20;;;25.23;;
6111;SDS011;3086;48.802;9.394;2024-01-11T00:29:42;48.13;;;26.87;;
6111;SDS011;3086;48.802;9.394;2024-01-11T00:33:04;42.93;;;23.23;;
6111;SDS011;3086;48.802;9.394;2024-01-11T00:36:26;39.37;;;22.07;;
6111;SDS011;3086;48.802;9.394;2024-01-11T00:39:50;42.97;;;25.57;;
6111;SDS011;3086;48.802;9.394;2024-01-11T00:43:12;45.23;;;25.27;;
6111;SDS011;3086;48.802;9.394;2024-01-11T00:46:34;40.70;;;22.83;;
6111;SDS011;3086;48.802;9.394;2024-01-11T00:49:56;45.93;;;26.60;;
6111;SDS011;3086;48.802;9.394;2024-01-11T00:53:18;40.20;;;22.73;;
6111;SDS011;3086;48.802;9.394;2024-01-11T00:56:41;48.53;;;25.20;;
6111;SDS011;3086;48.802;9.394;2024-01-11T01:00:03;44.47;;;25.47;;
6111;SDS011;3086;48.802;9.394;2024-01-11T01:03:25;44.03;;;26.10;;
6111;SDS011;3086;48.802;9.394;2024-01-11T01:06:46;42.90;;;24.20;;
6111;SDS011;3086;48.802;9.394;2024-01-11T01:10:08;55.60;;;26.77;;
6111;SDS011;3086;48.802;9.394;2024-01-11T01:13:31;47.17;;;24.27;;
6111;SDS011;3086;48.802;9.394;2024-01-11T01:16:52;42.87;;;24.13;;
6111;SDS011;3086;48.802;9.394;2024-01-11T01:20:14;47.57;;;26.87;;
6111;SDS011;3086;48.802;9.394;2024-01-11T01:23:36;53.97;;;26.90;;
6111;SDS011;3086;48.802;9.394;2024-01-11T01:26:58;46.73;;;26.03;;
6111;SDS011;3086;48.802;9.394;2024-01-11T01:30:21;46.27;;;24.97;;
6111;SDS011;3086;48.802;9.394;2024-01-11T01:33:43;43.03;;;24.43;;
6111;SDS011;3086;48.802;9.394;2024-01-11T01:37:05;53.80;;;23.70;;
6111;SDS011;3086;48.802;9.394;2024-01-11T01:40:26;44.27;;;24.47;;
6111;SDS011;3086;48.802;9.394;2024-01-11T01:43:48;41.80;;;24.03;;
6111;SDS011;3086;48.802;9.394;2024-01-11T01:47:11;53.00;;;26.97;;
6111;SDS011;3086;48.802;9.394;2024-01-11T01:50:32;46.27;;;25.97;;
6111;SDS011;3086;48.802;9.394;2024-01-11T01:53:54;43.90;;;24.43;;
6111;SDS011;3086;48.802;9.394;2024-01-11T01:57:17;45.33;;;24.17;;
6111;SDS011;3086;48.802;9.394;2024-01-11T02:00:40;44.23;;;23.20;;
6111;SDS011;3086;48.802;9.394;2024-01-11T02:04:03;42.43;;;24.93;;
6111;SDS011;3086;48.802;9.394;2024-01-11T02:07:25;45.33;;;25.93;;
6111;SDS011;3086;48.802;9.394;2024-01-11T02:10:46;44.53;;;24.13;;
6111;SDS011;3086;48.802;9.394;2024-01-11T02:14:10;45.83;;;24.83;;
6111;SDS011;3086;48.802;9.394;2024-01-11T02:17:31;43.13;;;24.07;;
6111;SDS011;3086;48.802;9.394;2024-01-11T02:20:54;43.63;;;24.43;;
6111;SDS011;3086;48.802;9.394;2024-01-11T02:24:17;52.67;;;24.53;;
6111;SDS011;3086;48.802;9.394;2024-01-11T02:27:46;50.97;;;25.10;;
6111;SDS011;3086;48.802;9.394;2024-01-11T02:31:07;44.57;;;24.47;;
6111;SDS011;3086;48.802;9.394;2024-01-11T02:34:29;41.93;;;23.97;;
6111;SDS011;3086;48.802;9.394;2024-01-11T02:37:51;46.43;;;24.53;;
6111;SDS011;3086;48.802;9.394;2024-01-11T02:41:14;47.67;;;24.43;;
6111;SDS011;3086;48.802;9.394;2024-01-11T02:44:37;47.33;;;24.30;;
6111;SDS011;3086;48.802;9.394;2024-01-11T02:47:58;46.60;;;22.80;;
6111;SDS011;3086;48.802;9.394;2024-01-11T02:51:20;42.57;;;23.10;;
6111;SDS011;3086;48.802;9.394;2024-01-11T02:54:41;48.97;;;25.07;;
6111;SDS011;3086;48.802;9.394;2024-01-11T02:58:05;43.17;;;22.83;;
6111;SDS011;3086;48.802;9.394;2024-01-11T03:01:27;42.80;;;24.23;;
6111;SDS011;3086;48.802;9.394;2024-01-11T03:04:49;45.23;;;24.23;;
6111;SDS011;3086;48.802;9.394;2024-01-11T03:08:11;42.43;;;24.30;;
6111;SDS011;3086;48.802;9.394;2024-01-11T03:11:32;40.00;;;22.60;;
6111;SDS011;3086;48.802;9.394;2024-01-11T03:14:55;42.57;;;23.90;;
6111;SDS011;3086;48.802;9.394;2024-01-11T03:18:17;45.93;;;23.77;;
6111;SDS011;3086;48.802;9.394;2024-01-11T03:21:41;46.27;;;24.13;;
6111;SDS011;3086;48.802;9.394;2024-01-11T03:25:03;44.80;;;24.37;;
6111;SDS011;3086;48.802;9.394;2024-01-11T03:28:25;43.73;;;24.00;;
6111;SDS011;3086;48.802;9.394;2024-01-11T03:31:48;48.40;;;24.53;;
6111;SDS011;3086;48.802;9.394;2024-01-11T03:35:10;45.10;;;25.20;;
6111;SDS011;3086;48.802;9.394;2024-01-11T03:38:31;42.23;;;24.43;;
6111;SDS011;3086;48.802;9.394;2024-01-11T03:41:53;38.40;;;22.57;;
6111;SDS011;3086;48.802;9.394;2024-01-11T03:45:17;44.90;;;23.97;;
6111;SDS011;3086;48.802;9.394;2024-01-11T03:48:40;42.93;;;23.67;;
6111;SDS011;3086;48.802;9.394;2024-01-11T03:52:02;47.43;;;24.97;;
6111;SDS011;3086;48.802;9.394;2024-01-11T03:55:24;42.67;;;22.97;;
6111;SDS011;3086;48.802;9.394;2024-01-11T03:58:45;41.10;;;23.00;;
6111;SDS011;3086;48.802;9.394;2024-01-11T04:02:08;42.30;;;22.97;;
6111;SDS011;3086;48.802;9.394;2024-01-11T04:05:31;44.13;;;24.70;;
6111;SDS011;3086;48.802;9.394;2024-01-11T04:08:53;49.50;;;23.77;;
6111;SDS011;3086;48.802;9.394;2024-01-11T04:12:15;46.93;;;25.10;;
6111;SDS011;3086;48.802;9.394;2024-01-11T04:15:36;42.00;;;23.80;;
6111;SDS011;3086;48.802;9.394;2024-01-11T04:18:58;41.60;;;22.70;;
6111;SDS011;3086;48.802;9.394;2024-01-11T04:22:21;40.17;;;23.17;;
6111;SDS011;3086;48.802;9.394;2024-01-11T04:25:43;39.60;;;22.47;;
6111;SDS011;3086;48.802;9.394;2024-01-11T04:29:04;39.20;;;23.30;;
6111;SDS011;3086;48.802;9.394;2024-01-11T04:32:26;43.27;;;24.43;;
6111;SDS011;3086;48.802;9.394;2024-01-11T04:35:47;45.87;;;24.23;;
6111;SDS011;3086;48.802;9.394;2024-01-11T04:39:10;43.57;;;22.57;;
6111;SDS011;3086;48.802;9.394;2024-01-11T04:42:32;45.07;;;25.03;;
6111;SDS011;3086;48.802;9.394;2024-01-11T04:45:54;43.47;;;24.63;;
6111;SDS011;3086;48.802;9.394;2024-01-11T04:49:16;50.67;;;25.40;;
6111;SDS011;3086;48.802;9.394;2024-01-11T04:52:37;40.90;;;23.60;;
6111;SDS011;3086;48.802;9.394;2024-01-11T04:56:01;47.67;;;23.63;;
6111;SDS011;3086;48.802;9.394;2024-01-11T04:59:22;43.53;;;21.60;;
6111;SDS011;3086;48.802;9.394;2024-01-11T05:02:44;45.70;;;24.00;;
6111;SDS011;3086;48.802;9.394;2024-01-11T05:06:05;39.07;;;22.90;;
6111;SDS011;3086;48.802;9.394;2024-01-11T05:09:27;49.07;;;25.03;;
6111;SDS011;3086;48.802;9.394;2024-01-11T05:12:50;39.07;;;21.60;;
6111;SDS011;3086;48.802;9.394;2024-01-11T05:16:16;43.33;;;24.87;;
6111;SDS011;3086;48.802;9.394;2024-01-11T05:19:39;43.67;;;23.23;;
6111;SDS011;3086;48.802;9.394;2024-01-11T05:23:01;47.60;;;23.53;;
6111;SDS011;3086;48.802;9.394;2024-01-11T05:26:22;44.63;;;23.57;;
6111;SDS011;3086;48.802;9.394;2024-01-11T05:29:46;41.10;;;24.13;;
6111;SDS011;3086;48.802;9.394;2024-01-11T05:33:07;46.53;;;24.00;;
6111;SDS011;3086;48.802;9.394;2024-01-11T05:36:29;48.03;;;27.50;;
6111;SDS011;3086;48.802;9.394;2024-01-11T05:39:50;45.77;;;27.00;;
6111;SDS011;3086;48.802;9.394;2024-01-11T05:43:12;44.17;;;24.67;;
6111;SDS011;3086;48.802;9.394;2024-01-11T05:46:35;46.73;;;23.50;;
6111;SDS011;3086;48.802;9.394;2024-01-11T05:49:56;44.07;;;24.10;;
6111;SDS011;3086;48.802;9.394;2024-01-11T05:53:18;47.47;;;25.37;;
6111;SDS011;3086;48.802;9.394;2024-01-11T05:56:40;50.70;;;25.70;;
6111;SDS011;3086;48.802;9.394;2024-01-11T06:00:02;44.77;;;26.27;;
6111;SDS011;3086;48.802;9.394;2024-01-11T06:03:26;52.60;;;25.33;;
6111;SDS011;3086;48.802;9.394;2024-01-11T06:06:48;50.53;;;25.47;;
6111;SDS011;3086;48.802;9.394;2024-01-11T06:10:09;42.00;;;23.80;;
6111;SDS011;3086;48.802;9.394;2024-01-11T06:13:31;47.13;;;24.10;;
6111;SDS011;3086;48.802;9.394;2024-01-11T06:16:52;47.37;;;23.63;;
6111;SDS011;3086;48.802;9.394;2024-01-11T06:20:15;40.73;;;23.67;;
6111;SDS011;3086;48.802;9.394;2024-01-11T06:23:37;43.83;;;23.33;;
6111;SDS011;3086;48.802;9.394;2024-01-11T06:26:58;40.00;;;23.97;;
6111;SDS011;3086;48.802;9.394;2024-01-11T06:30:20;45.03;;;24.80;;
6111;SDS011;3086;48.802;9.394;2024-01-11T06:33:41;48.57;;;25.20;;
6111;SDS011;3086;48.802;9.394;2024-01-11T06:37:04;45.83;;;24.83;;
6111;SDS011;3086;48.802;9.394;2024-01-11T06:40:26;46.57;;;26.07;;
6111;SDS011;3086;48.802;9.394;2024-01-11T06:43:47;45.87;;;24.17;;
6111;SDS011;3086;48.802;9.394;2024-01-11T06:47:09;43.30;;;23.70;;
6111;SDS011;3086;48.802;9.394;2024-01-11T06:50:30;45.33;;;24.33;;
6111;SDS011;3086;48.802;9.394;2024-01-11T06:53:53;51.80;;;23.93;;
6111;SDS011;3086;48.802;9.394;2024-01-11T06:57:15;46.00;;;26.00;;
6111;SDS011;3086;48.802;9.394;2024-01-11T07:00:37;39.40;;;23.17;;
6111;SDS011;3086;48.802;9.394;2024-01-11T07:04:03;46.23;;;23.70;;
6111;SDS011;3086;48.802;9.394;2024-01-11T07:07:24;45.60;;;24.27;;
6111;SDS011;3086;48.802;9.394;2024-01-11T07:10:48;56.17;;;25.20;;
6111;SDS011;3086;48.802;9.394;2024-01-11T07:14:10;46.80;;;24.97;;
6111;SDS011;3086;48.802;9.394;2024-01-11T07:17:31;47.80;;;24.20;;
6111;SDS011;3086;48.802;9.394;2024-01-11T07:20:53;42.13;;;23.07;;
6111;SDS011;3086;48.802;9.394;2024-01-11T07:24:17;49.83;;;25.00;;
6111;SDS011;3086;48.802;9.394;2024-01-11T07:27:41;50.33;;;25.00;;
6111;SDS011;3086;48.802;9.394;2024-01-11T07:31:02;52.77;;;25.93;;
6111;SDS011;3086;48.802;9.394;2024-01-11T07:34:25;51.93;;;25.80;;
6111;SDS011;3086;48.802;9.394;2024-01-11T07:37:46;50.47;;;25.93;;
6111;SDS011;3086;48.802;9.394;2024-01-11T07:41:10;44.50;;;23.00;;
6111;SDS011;3086;48.802;9.394;2024-01-11T07:44:33;49.37;;;25.30;;
6111;SDS011;3086;48.802;9.394;2024-01-11T07:47:54;49.83;;;24.70;;
6111;SDS011;3086;48.802;9.394;2024-01-11T07:51:16;50.00;;;26.03;;
6111;SDS011;3086;48.802;9.394;2024-01-11T07:54:39;54.37;;;26.73;;
6111;SDS011;3086;48.802;9.394;2024-01-11T07:58:00;54.37;;;28.30;;
6111;SDS011;3086;48.802;9.394;2024-01-11T08:01:23;52.97;;;29.73;;
6111;SDS011;3086;48.802;9.394;2024-01-11T08:04:45;51.33;;;27.73;;
6111;SDS011;3086;48.802;9.394;2024-01-11T08:08:06;49.37;;;26.90;;
6111;SDS011;3086;48.802;9.394;2024-01-11T08:11:27;46.20;;;25.17;;
6111;SDS011;3086;48.802;9.394;2024-01-11T08:14:49;58.37;;;27.00;;
6111;SDS011;3086;48.802;9.394;2024-01-11T08:18:12;53.17;;;25.27;;
6111;SDS011;3086;48.802;9.394;2024-01-11T08:21:33;50.53;;;25.77;;
6111;SDS011;3086;48.802;9.394;2024-01-11T08:24:55;45.43;;;27.63;;
6111;SDS011;3086;48.802;9.394;2024-01-11T08:28:17;55.53;;;27.73;;
6111;SDS011;3086;48.802;9.394;2024-01-11T08:31:39;51.03;;;27.50;;
6111;SDS011;3086;48.802;9.394;2024-01-11T08:35:02;48.90;;;27.40;;
6111;SDS011;3086;48.802;9.394;2024-01-11T08:38:24;48.77;;;26.23;;
6111;SDS011;3086;48.802;9.394;2024-01-11T08:41:46;51.40;;;28.60;;
6111;SDS011;3086;48.802;9.394;2024-01-11T08:45:09;55.47;;;28.00;;
6111;SDS011;3086;48.802;9.394;2024-01-11T08:48:37;51.73;;;27.43;;
6111;SDS011;3086;48.802;9.394;2024-01-11T08:52:00;50.07;;;27.97;;
6111;SDS011;3086;48.802;9.394;2024-01-11T08:55:22;50.73;;;28.83;;
6111;SDS011;3086;48.802;9.394;2024-01-11T08:58:46;46.50;;;28.13;;
6111;SDS011;3086;48.802;9.394;2024-01-11T09:02:08;48.87;;;27.50;;
6111;SDS011;3086;48.802;9.394;2024-01-11T09:05:30;51.53;;;28.07;;
6111;SDS011;3086;48.802;9.394;2024-01-11T09:08:53;53.30;;;30.50;;
6111;SDS011;3086;48.802;9.394;2024-01-11T09:12:15;52.10;;;29.43;;
6111;SDS011;3086;48.802;9.394;2024-01-11T09:15:36;55.57;;;30.70;;
6111;SDS011;3086;48.802;9.394;2024-01-11T09:18:58;52.87;;;29.63;;
6111;SDS011;3086;48.802;9.394;2024-01-11T09:22:20;49.43;;;29.50;;
6111;SDS011;3086;48.802;9.394;2024-01-11T09:25:43;50.60;;;29.23;;
6111;SDS011;3086;48.802;9.394;2024-01-11T09:29:05;52.33;;;29.60;;
6111;SDS011;3086;48.802;9.394;2024-01-11T09:32:26;50.10;;;30.97;;
6111;SDS011;3086;48.802;9.394;2024-01-11T09:35:48;55.70;;;29.03;;
6111;SDS011;3086;48.802;9.394;2024-01-11T09:39:09;53.13;;;29.53;;
6111;SDS011;3086;48.802;9.394;2024-01-11T09:42:34;48.47;;;30.73;;
6111;SDS011;3086;48.802;9.394;2024-01-11T09:45:56;54.80;;;31.40;;
6111;SDS011;3086;48.802;9.394;2024-01-11T09:49:18;56.77;;;31.23;;
6111;SDS011;3086;48.802;9.394;2024-01-11T09:52:40;48.67;;;29.40;;
6111;SDS011;3086;48.802;9.394;2024-01-11T09:56:03;53.43;;;30.93;;
6111;SDS011;3086;48.802;9.394;2024-01-11T09:59:27;50.53;;;30.33;;
6111;SDS011;3086;48.802;9.394;2024-01-11T10:02:49;52.10;;;29.47;;
6111;SDS011;3086;48.802;9.394;2024-01-11T10:06:12;50.97;;;30.27;;
6111;SDS011;3086;48.802;9.394;2024-01-11T10:09:36;47.80;;;28.33;;
6111;SDS011;3086;48.802;9.394;2024-01-11T10:12:58;48.77;;;30.30;;
6111;SDS011;3086;48.802;9.394;2024-01-11T10:16:21;49.37;;;28.93;;
6111;SDS011;3086;48.802;9.394;2024-01-11T10:19:44;52.33;;;29.33;;
6111;SDS011;3086;48.802;9.394;2024-01-11T10:23:06;51.17;;;29.63;;
6111;SDS011;3086;48.802;9.394;2024-01-11T10:26:29;52.63;;;28.90;;
6111;SDS011;3086;48.802;9.394;2024-01-11T10:29:52;45.43;;;28.67;;
6111;SDS011;3086;48.802;9.394;2024-01-11T10:33:15;45.00;;;27.67;;
6111;SDS011;3086;48.802;9.394;2024-01-11T10:36:36;47.53;;;28.03;;
6111;SDS011;3086;48.802;9.394;2024-01-11T10:39:58;42.97;;;28.67;;
6111;SDS011;3086;48.802;9.394;2024-01-11T10:43:24;46.80;;;28.30;;
6111;SDS011;3086;48.802;9.394;2024-01-11T10:46:45;48.97;;;28.07;;
6111;SDS011;3086;48.802;9.394;2024-01-11T10:50:09;47.40;;;29.50;;
6111;SDS011;3086;48.802;9.394;2024-01-11T10:53:31;48.27;;;30.63;;
6111;SDS011;3086;48.802;9.394;2024-01-11T10:56:58;48.03;;;30.80;;
6111;SDS011;3086;48.802;9.394;2024-01-11T11:00:20;51.00;;;29.97;;
6111;SDS011;3086;48.802;9.394;2024-01-11T11:03:43;51.73;;;29.97;;
6111;SDS011;3086;48.802;9.394;2024-01-11T11:07:07;45.00;;;29.20;;
6111;SDS011;3086;48.802;9.394;2024-01-11T11:10:59;50.80;;;30.10;;
6111;SDS011;3086;48.802;9.394;2024-01-11T11:14:23;45.57;;;28.90;;
6111;SDS011;3086;48.802;9.394;2024-01-11T11:17:45;49.60;;;31.23;;
6111;SDS011;3086;48.802;9.394;2024-01-11T11:21:08;51.40;;;29.90;;
6111;SDS011;3086;48.802;9.394;2024-01-11T11:24:34;47.33;;;29.90;;
6111;SDS011;3086;48.802;9.394;2024-01-11T11:27:56;48.80;;;28.90;;
6111;SDS011;3086;48.802;9.394;2024-01-11T11:34:55;51.47;;;30.07;;
6111;SDS011;3086;48.802;9.394;2024-01-11T11:38:17;51.70;;;29.60;;
6111;SDS011;3086;48.802;9.394;2024-01-11T11:41:41;48.20;;;28.63;;
6111;SDS011;3086;48.802;9.394;2024-01-11T11:45:03;50.73;;;29.47;;
6111;SDS011;3086;48.802;9.394;2024-01-11T11:52:14;43.80;;;28.97;;
6111;SDS011;3086;48.802;9.394;2024-01-11T11:55:35;47.00;;;29.07;;
6111;SDS011;3086;48.802;9.394;2024-01-11T11:58:59;46.73;;;28.80;;
6111;SDS011;3086;48.802;9.394;2024-01-11T12:02:23;45.90;;;28.60;;
6111;SDS011;3086;48.802;9.394;2024-01-11T12:05:46;45.97;;;29.80;;
6111;SDS011;3086;48.802;9.394;2024-01-11T12:09:07;46.10;;;29.27;;
6111;SDS011;3086;48.802;9.394;2024-01-11T12:12:29;45.80;;;30.20;;
6111;SDS011;3086;48.802;9.394;2024-01-11T12:15:53;49.20;;;31.47;;
6111;SDS011;3086;48.802;9.394;2024-01-11T12:19:15;47.53;;;30.07;;
6111;SDS011;3086;48.802;9.394;2024-01-11T12:22:38;48.57;;;28.03;;
6111;SDS011;3086;48.802;9.394;2024-01-11T12:26:00;49.07;;;29.33;;
6111;SDS011;3086;48.802;9.394;2024-01-11T12:29:22;44.57;;;28.87;;
6111;SDS011;3086;48.802;9.394;2024-01-11T12:32:46;45.00;;;29.47;;
6111;SDS011;3086;48.802;9.394;2024-01-11T12:36:08;45.30;;;28.70;;
6111;SDS011;3086;48.802;9.394;2024-01-11T12:39:30;48.13;;;30.77;;
6111;SDS011;3086;48.802;9.394;2024-01-11T12:42:52;49.27;;;29.03;;
6111;SDS011;3086;48.802;9.394;2024-01-11T12:46:15;47.00;;;29.10;;
6111;SDS011;3086;48.802;9.394;2024-01-11T12:49:38;47.30;;;29.97;;
6111;SDS011;3086;48.802;9.394;2024-01-11T12:53:09;51.27;;;30.80;;
6111;SDS011;3086;48.802;9.394;2024-01-11T12:56:40;43.83;;;28.27;;
6111;SDS011;3086;48.802;9.394;2024-01-11T13:00:11;48.40;;;30.33;;
6111;SDS011;3086;48.802;9.394;2024-01-11T13:03:34;47.97;;;29.57;;
6111;SDS011;3086;48.802;9.394;2024-01-11T13:06:57;47.50;;;29.97;;
6111;SDS011;3086;48.802;9.394;2024-01-11T13:10:18;47.87;;;29.27;;
6111;SDS011;3086;48.802;9.394;2024-01-11T13:13:40;46.70;;;29.90;;
6111;SDS011;3086;48.802;9.394;2024-01-11T13:17:01;41.03;;;28.33;;
6111;SDS011;3086;48.802;9.394;2024-01-11T13:20:23;48.27;;;30.87;;
6111;SDS011;3086;48.802;9.394;2024-01-11T13:23:46;47.07;;;30.20;;
6111;SDS011;3086;48.802;9.394;2024-01-11T13:27:07;49.37;;;29.67;;
6111;SDS011;3086;48.802;9.394;2024-01-11T13:30:29;46.80;;;28.83;;
6111;SDS011;3086;48.802;9.394;2024-01-11T13:33:51;44.87;;;28.67;;
6111;SDS011;3086;48.802;9.394;2024-01-11T13:37:12;50.23;;;30.80;;
6111;SDS011;3086;48.802;9.394;2024-01-11T13:40:35;45.87;;;29.00;;
6111;SDS011;3086;48.802;9.394;2024-01-11T13:43:58;43.50;;;28.60;;
6111;SDS011;3086;48.802;9.394;2024-01-11T13:47:20;43.87;;;27.50;;
6111;SDS011;3086;48.802;9.394;2024-01-11T13:50:41;44.33;;;28.87;;
6111;SDS011;3086;48.802;9.394;2024-01-11T13:54:03;49.23;;;30.30;;
6111;SDS011;3086;48.802;9.394;2024-01-11T13:57:26;46.77;;;28.13;;
6111;SDS011;3086;48.802;9.394;2024-01-11T14:00:48;46.03;;;28.80;;
6111;SDS011;3086;48.802;9.394;2024-01-11T14:04:09;45.00;;;29.00;;
6111;SDS011;3086;48.802;9.394;2024-01-11T14:07:31;49.17;;;29.53;;
6111;SDS011;3086;48.802;9.394;2024-01-11T14:10:52;44.57;;;28.13;;
6111;SDS011;3086;48.802;9.394;2024-01-11T14:14:16;48.30;;;30.33;;
6111;SDS011;3086;48.802;9.394;2024-01-11T14:17:39;41.90;;;30.00;;
6111;SDS011;3086;48.802;9.394;2024-01-11T14:21:01;45.50;;;28.40;;
6111;SDS011;3086;48.802;9.394;2024-01-11T14:24:31;43.83;;;29.87;;
6111;SDS011;3086;48.802;9.394;2024-01-11T14:27:54;43.93;;;28.70;;
6111;SDS011;3086;48.802;9.394;2024-01-11T14:31:17;47.83;;;29.17;;
6111;SDS011;3086;48.802;9.394;2024-01-11T14:34:39;44.97;;;27.97;;
6111;SDS011;3086;48.802;9.394;2024-01-11T14:38:00;45.00;;;28.97;;
6111;SDS011;3086;48.802;9.394;2024-01-11T14:41:24;40.70;;;28.33;;
6111;SDS011;3086;48.802;9.394;2024-01-11T14:44:47;46.00;;;29.90;;
6111;SDS011;3086;48.802;9.394;2024-01-11T14:48:09;42.73;;;28.90;;
6111;SDS011;3086;48.802;9.394;2024-01-11T14:51:32;44.80;;;28.03;;
6111;SDS011;3086;48.802;9.394;2024-01-11T14:54:54;40.90;;;28.53;;
6111;SDS011;3086;48.802;9.394;2024-01-11T14:58:15;45.17;;;29.60;;
6111;SDS011;3086;48.802;9.394;2024-01-11T15:01:37;43.07;;;28.60;;
6111;SDS011;3086;48.802;9.394;2024-01-11T15:05:00;52.50;;;30.53;;
6111;SDS011;3086;48.802;9.394;2024-01-11T15:08:22;46.63;;;28.67;;
6111;SDS011;3086;48.802;9.394;2024-01-11T15:11:44;40.70;;;28.27;;
6111;SDS011;3086;48.802;9.394;2024-01-11T15:15:06;45.93;;;28.73;;
6111;SDS011;3086;48.802;9.394;2024-01-11T15:18:29;49.30;;;29.90;;
6111;SDS011;3086;48.802;9.394;2024-01-11T15:21:52;45.93;;;28.13;;
6111;SDS011;3086;48.802;9.394;2024-01-11T15:25:14;49.43;;;30.00;;
6111;SDS011;3086;48.802;9.394;2024-01-11T15:28:37;46.43;;;28.17;;
6111;SDS011;3086;48.802;9.394;2024-01-11T15:31:58;49.50;;;29.13;;
6111;SDS011;3086;48.802;9.394;2024-01-11T15:35:20;44.33;;;29.23;;
6111;SDS011;3086;48.802;9.394;2024-01-11T15:38:43;46.73;;;29.00;;
6111;SDS011;3086;48.802;9.394;2024-01-11T15:42:05;45.57;;;28.80;;
6111;SDS011;3086;48.802;9.394;2024-01-11T15:45:26;45.67;;;29.33;;
6111;SDS011;3086;48.802;9.394;2024-01-11T15:48:48;42.17;;;28.73;;
6111;SDS011;3086;48.802;9.394;2024-01-11T15:52:09;50.67;;;28.67;;
6111;SDS011;3086;48.802;9.394;2024-01-11T15:55:32;47.93;;;29.73;;
6111;SDS011;3086;48.802;9.394;2024-01-11T15:58:54;45.53;;;29.40;;
6111;SDS011;3086;48.802;9.394;2024-01-11T16:02:16;49.97;;;31.10;;
6111;SDS011;3086;48.802;9.394;2024-01-11T16:05:38;43.87;;;29.73;;
6111;SDS011;3086;48.802;9.394;2024-01-11T16:08:59;51.80;;;30.87;;
6111;SDS011;3086;48.802;9.394;2024-01-11T16:12:22;49.73;;;28.63;;
6111;SDS011;3086;48.802;9.394;2024-01-11T16:15:44;59.60;;;32.27;;
6111;SDS011;3086;48.802;9.394;2024-01-11T16:19:05;47.20;;;30.63;;
6111;SDS011;3086;48.802;9.394;2024-01-11T16:22:27;57.87;;;35.53;;
6111;SDS011;3086;48.802;9.394;2024-01-11T16:25:48;64.70;;;37.07;;
6111;SDS011;3086;48.802;9.394;2024-01-11T16:29:11;66.43;;;38.47;;
6111;SDS011;3086;48.802;9.394;2024-01-11T16:32:33;70.43;;;44.17;;
6111;SDS011;3086;48.802;9.394;2024-01-11T16:35:54;64.00;;;35.77;;
6111;SDS011;3086;48.802;9.394;2024-01-11T16:39:17;67.33;;;38.67;;
6111;SDS011;3086;48.802;9.394;2024-01-11T16:42:39;61.67;;;38.07;;
6111;SDS011;3086;48.802;9.394;2024-01-11T16:46:02;65.63;;;40.07;;
6111;SDS011;3086;48.802;9.394;2024-01-11T16:49:27;58.30;;;36.37;;
6111;SDS011;3086;48.802;9.394;2024-01-11T16:52:49;68.47;;;36.77;;
6111;SDS011;3086;48.802;9.394;2024-01-11T16:56:10;63.70;;;36.20;;
6111;SDS011;3086;48.802;9.394;2024-01-11T16:59:32;66.50;;;36.57;;
6111;SDS011;3086;48.802;9.394;2024-01-11T17:02:56;57.07;;;35.43;;
6111;SDS011;3086;48.802;9.394;2024-01-11T17:06:18;56.07;;;34.53;;
6111;SDS011;3086;48.802;9.394;2024-01-11T17:09:41;64.33;;;37.93;;
6111;SDS011;3086;48.802;9.394;2024-01-11T17:13:03;68.13;;;36.43;;
6111;SDS011;3086;48.802;9.394;2024-01-11T17:16:24;65.37;;;36.17;;
6111;SDS011;3086;48.802;9.394;2024-01-11T17:19:47;68.77;;;39.10;;
6111;SDS011;3086;48.802;9.394;2024-01-11T17:23:09;65.10;;;38.07;;
6111;SDS011;3086;48.802;9.394;2024-01-11T17:26:31;74.70;;;43.10;;
6111;SDS011;3086;48.802;9.394;2024-01-11T17:29:53;66.07;;;38.90;;
6111;SDS011;3086;48.802;9.394;2024-01-11T17:33:14;66.37;;;40.30;;
6111;SDS011;3086;48.802;9.394;2024-01-11T17:36:37;72.37;;;40.27;;
6111;SDS011;3086;48.802;9.394;2024-01-11T17:39:59;67.83;;;38.50;;
6111;SDS011;3086;48.802;9.394;2024-01-11T17:43:20;57.33;;;34.47;;
6111;SDS011;3086;48.802;9.394;2024-01-11T17:46:42;52.97;;;33.43;;
6111;SDS011;3086;48.802;9.394;2024-01-11T17:50:05;48.20;;;31.87;;
6111;SDS011;3086;48.802;9.394;2024-01-11T17:53:28;56.43;;;35.27;;
6111;SDS011;3086;48.802;9.394;2024-01-11T17:56:50;57.43;;;33.80;;
6111;SDS011;3086;48.802;9.394;2024-01-11T18:00:12;51.87;;;34.20;;
6111;SDS011;3086;48.802;9.394;2024-01-11T18:03:54;57.47;;;33.43;;
6111;SDS011;3086;48.802;9.394;2024-01-11T18:07:16;50.73;;;29.03;;
6111;SDS011;3086;48.802;9.394;2024-01-11T18:10:40;57.17;;;34.13;;
6111;SDS011;3086;48.802;9.394;2024-01-11T18:14:01;57.63;;;35.07;;
6111;SDS011;3086;48.802;9.394;2024-01-11T18:17:23;63.00;;;34.47;;
6111;SDS011;3086;48.802;9.394;2024-01-11T18:20:44;60.87;;;34.73;;
6111;SDS011;3086;48.802;9.394;2024-01-11T18:24:07;56.70;;;33.07;;
6111;SDS011;3086;48.802;9.394;2024-01-11T18:27:30;56.57;;;33.03;;
6111;SDS011;3086;48.802;9.394;2024-01-11T18:30:52;53.67;;;33.33;;
6111;SDS011;3086;48.802;9.394;2024-01-11T18:34:13;62.30;;;33.37;;
6111;SDS011;3086;48.802;9.394;2024-01-11T18:37:35;55.40;;;33.53;;
6111;SDS011;3086;48.802;9.394;2024-01-11T18:40:58;58.37;;;32.23;;
6111;SDS011;3086;48.802;9.394;2024-01-11T18:44:21;57.83;;;33.80;;
6111;SDS011;3086;48.802;9.394;2024-01-11T18:47:44;54.00;;;33.07;;
6111;SDS011;3086;48.802;9.394;2024-01-11T18:51:05;51.73;;;32.07;;
6111;SDS011;3086;48.802;9.394;2024-01-11T18:54:27;69.13;;;37.60;;
6111;SDS011;3086;48.802;9.394;2024-01-11T18:57:48;55.90;;;33.53;;
6111;SDS011;3086;48.802;9.394;2024-01-11T19:01:11;53.10;;;31.90;;
6111;SDS011;3086;48.802;9.394;2024-01-11T19:04:33;55.40;;;32.73;;
6111;SDS011;3086;48.802;9.394;2024-01-11T19:07:54;63.07;;;38.03;;
6111;SDS011;3086;48.802;9.394;2024-01-11T19:11:19;62.03;;;35.30;;
6111;SDS011;3086;48.802;9.394;2024-01-11T19:14:40;63.67;;;40.50;;
6111;SDS011;3086;48.802;9.394;2024-01-11T19:18:04;50.03;;;31.47;;
6111;SDS011;3086;48.802;9.394;2024-01-11T19:21:28;56.13;;;32.87;;
6111;SDS011;3086;48.802;9.394;2024-01-11T19:24:49;55.60;;;35.90;;
6111;SDS011;3086;48.802;9.394;2024-01-11T19:28:11;55.57;;;31.17;;
6111;SDS011;3086;48.802;9.394;2024-01-11T19:31:33;63.70;;;34.53;;
6111;SDS011;3086;48.802;9.394;2024-01-11T19:34:56;60.17;;;33.57;;
6111;SDS011;3086;48.802;9.394;2024-01-11T19:38:18;56.67;;;33.37;;
6111;SDS011;3086;48.802;9.394;2024-01-11T19:41:40;53.70;;;33.13;;
6111;SDS011;3086;48.802;9.394;2024-01-11T19:45:02;54.63;;;32.20;;
6111;SDS011;3086;48.802;9.394;2024-01-11T19:48:24;59.83;;;33.73;;
6111;SDS011;3086;48.802;9.394;2024-01-11T19:51:47;58.90;;;31.50;;
6111;SDS011;3086;48.802;9.394;2024-01-11T19:55:08;61.77;;;33.67;;
6111;SDS011;3086;48.802;9.394;2024-01-11T19:58:30;53.97;;;31.67;;
6111;SDS011;3086;48.802;9.394;2024-01-11T20:01:51;61.83;;;32.63;;
6111;SDS011;3086;48.802;9.394;2024-01-11T20:05:13;61.77;;;35.80;;
6111;SDS011;3086;48.802;9.394;2024-01-11T20:08:36;65.27;;;37.50;;
6111;SDS011;3086;48.802;9.394;2024-01-11T20:11:58;58.13;;;35.30;;
6111;SDS011;3086;48.802;9.394;2024-01-11T20:15:19;58.93;;;34.73;;
6111;SDS011;3086;48.802;9.394;2024-01-11T20:18:42;55.10;;;33.63;;
6111;SDS011;3086;48.802;9.394;2024-01-11T20:22:04;68.23;;;38.77;;
6111;SDS011;3086;48.802;9.394;2024-01-11T20:25:28;64.00;;;36.83;;
6111;SDS011;3086;48.802;9.394;2024-01-11T20:28:49;57.03;;;31.53;;